Lake Lafayette, Missouri
Current Conditions -  °F | °C
As of 11:35 PM on Wednesday 26 Nov 2014 (Local Time) from KRCM Reporting Station
Overcast Overcast  
Wind Chill: 22°   Ceiling: 1600
Heat Index: 32°   Visibility: 10mi
Dew Point: 25°   Wind: 14mph
Humidity: 75%   Direction: 290°WNW
Pressure: 30.38"   Gusts: 20mph
Location:  38.9828°N, 93.9522°W
Report Text: KRCM 270535Z AUTO 29012G17KT 10SM OVC016 00/M04 A3038 RMK AO2
Loading
Personal Weather Stations






























Interactive Weather Map New forecast layout! Learn more

10-Day Weather Forecast

Advertisements
Track Severe Weather on mobile